createdAt,value
2023-01-10T00:00:03.251Z,0
2023-01-10T00:05:03.206Z,0
2023-01-10T00:10:03.274Z,0
2023-01-10T00:15:02.857Z,0
2023-01-10T00:20:02.629Z,0
2023-01-10T00:25:02.376Z,0
2023-01-10T00:30:03.258Z,0
2023-01-10T00:35:03.030Z,0
2023-01-10T00:40:02.709Z,0
2023-01-10T00:45:02.420Z,0
2023-01-10T00:50:03.098Z,0
2023-01-10T00:55:03.543Z,0
2023-01-10T01:00:02.623Z,0
2023-01-10T01:05:02.441Z,0
2023-01-10T01:10:03.235Z,0
2023-01-10T01:15:03.229Z,0
2023-01-10T01:20:03.054Z,0
2023-01-10T01:25:03.058Z,0
2023-01-10T01:30:10.760Z,0
2023-01-10T01:35:03.227Z,0
2023-01-10T01:40:03.115Z,0
2023-01-10T01:45:02.526Z,0
2023-01-10T01:50:03.228Z,0
2023-01-10T01:55:03.561Z,0
2023-01-10T02:00:02.638Z,0
2023-01-10T02:05:03.305Z,0
2023-01-10T02:10:03.437Z,0
2023-01-10T02:15:02.744Z,0
2023-01-10T02:20:03.511Z,0
2023-01-10T02:25:02.987Z,0
2023-01-10T02:30:02.841Z,0
2023-01-10T02:35:02.546Z,0
2023-01-10T02:40:02.354Z,0
2023-01-10T02:45:03.023Z,0
2023-01-10T02:50:02.806Z,0
2023-01-10T02:55:02.964Z,0
2023-01-10T03:00:03.253Z,0
2023-01-10T03:05:02.995Z,0
2023-01-10T03:10:02.584Z,0
2023-01-10T03:15:03.292Z,0
2023-01-10T03:20:03.023Z,0
2023-01-10T03:25:02.756Z,0
2023-01-10T03:30:03.316Z,0
2023-01-10T03:35:02.951Z,0
2023-01-10T03:40:02.689Z,0
2023-01-10T03:45:02.846Z,0
2023-01-10T03:50:02.479Z,0
2023-01-10T03:55:02.705Z,0
2023-01-10T04:00:03.141Z,0
2023-01-10T04:05:02.745Z,0
2023-01-10T04:10:02.566Z,0
2023-01-10T04:15:03.372Z,0
2023-01-10T04:20:03.560Z,0
2023-01-10T04:25:02.766Z,0
2023-01-10T04:30:02.571Z,0
2023-01-10T04:35:03.536Z,0
2023-01-10T04:40:03.062Z,0
2023-01-10T04:45:02.869Z,0
2023-01-10T04:50:02.512Z,0
2023-01-10T04:55:03.987Z,0
2023-01-10T05:00:03.253Z,0
2023-01-10T05:05:02.896Z,0
2023-01-10T05:10:02.716Z,0
2023-01-10T05:15:02.524Z,0
2023-01-10T05:20:03.226Z,0
2023-01-10T05:25:02.446Z,0
2023-01-10T05:30:02.531Z,0
2023-01-10T05:35:02.682Z,0
2023-01-10T05:40:02.358Z,0
2023-01-10T05:45:03.439Z,0
2023-01-10T05:50:02.987Z,0
2023-01-10T05:55:03.275Z,0
2023-01-10T06:00:05.271Z,0
2023-01-10T06:05:03.131Z,0
2023-01-10T06:10:02.823Z,0
2023-01-10T06:15:02.867Z,0
2023-01-10T06:20:02.729Z,0
2023-01-10T06:25:02.915Z,0
2023-01-10T06:30:03.289Z,0.11
2023-01-10T06:35:03.014Z,0.57
2023-01-10T06:40:02.773Z,1.36
2023-01-10T06:45:02.711Z,2.83
2023-01-10T06:50:02.525Z,4.87
2023-01-10T06:55:04.044Z,8.49
2023-01-10T07:00:02.925Z,8.33
2023-01-10T07:05:02.798Z,25
2023-01-10T07:10:02.738Z,41.67
2023-01-10T07:15:02.468Z,63.33
2023-01-10T07:20:02.448Z,98.33
2023-01-10T07:25:03.012Z,141.67
2023-01-10T07:30:02.803Z,195
2023-01-10T07:35:02.564Z,201.67
2023-01-10T07:40:03.290Z,301.67
2023-01-10T07:45:03.055Z,425
2023-01-10T07:50:02.857Z,481.67
2023-01-10T07:55:03.467Z,653.33
2023-01-10T08:00:02.445Z,790
2023-01-10T08:05:03.182Z,765
2023-01-10T08:10:02.912Z,1076.67
2023-01-10T08:15:02.789Z,1368.33
2023-01-10T08:20:02.593Z,1426.67
2023-01-10T08:25:03.665Z,1546.67
2023-01-10T08:30:02.929Z,1256.67
2023-01-10T08:35:03.081Z,1458.33
2023-01-10T08:40:02.765Z,1561.67
2023-01-10T08:45:02.622Z,2070
2023-01-10T08:50:03.342Z,2098.33
2023-01-10T08:55:02.848Z,2016.67
2023-01-10T09:00:03.136Z,1898.33
2023-01-10T09:05:02.931Z,1821.67
2023-01-10T09:10:03.339Z,2568.33
2023-01-10T09:15:03.147Z,2560
2023-01-10T09:20:02.873Z,2146.67
2023-01-10T09:25:02.601Z,2428.33
2023-01-10T09:30:02.632Z,2398.33
2023-01-10T09:35:03.124Z,3175
2023-01-10T09:40:02.886Z,2411.67
2023-01-10T09:45:02.979Z,2225
2023-01-10T09:50:02.412Z,2505
2023-01-10T09:55:04.141Z,6411.67
2023-01-10T10:00:03.216Z,7595
2023-01-10T10:05:02.846Z,3611.67
2023-01-10T10:10:02.597Z,3655
2023-01-10T10:15:03.349Z,3840
2023-01-10T10:20:03.293Z,5173.33
2023-01-10T10:25:03.496Z,6735
2023-01-10T10:30:03.155Z,4498.33
2023-01-10T10:35:02.752Z,3376.67
2023-01-10T10:40:02.529Z,3201.67
2023-01-10T10:45:03.405Z,2546.67
2023-01-10T10:50:02.315Z,2351.67
2023-01-10T10:55:03.902Z,3213.33
2023-01-10T11:00:02.941Z,4211.67
2023-01-10T11:05:02.886Z,4950
2023-01-10T11:10:02.595Z,4843.33
2023-01-10T11:15:02.482Z,3703.33
2023-01-10T11:20:03.195Z,4218.33
2023-01-10T11:25:03.075Z,4868.33
2023-01-10T11:30:03.033Z,3456.67
2023-01-10T11:35:02.923Z,4570
2023-01-10T11:40:02.636Z,4703.33
2023-01-10T11:45:03.334Z,3678.33
2023-01-10T11:50:03.076Z,4661.67
2023-01-10T11:55:03.472Z,4608.33
2023-01-10T12:00:03.101Z,4166.67
2023-01-10T12:05:02.859Z,3778.33
2023-01-10T12:10:02.578Z,4220
2023-01-10T12:15:03.412Z,4370
2023-01-10T12:20:03.052Z,4371.67
2023-01-10T12:25:02.749Z,3680
2023-01-10T12:30:02.636Z,6133.33
2023-01-10T12:35:02.412Z,6848.33
2023-01-10T12:40:03.109Z,4308.33
2023-01-10T12:45:03.036Z,3565
2023-01-10T12:50:02.526Z,2446.67
2023-01-10T12:55:03.625Z,2296.67
2023-01-10T13:00:02.995Z,1778.33
2023-01-10T13:05:02.982Z,2506.67
2023-01-10T13:10:02.442Z,2580
2023-01-10T13:15:03.136Z,2268.33
2023-01-10T13:20:03.140Z,2108.33
2023-01-10T13:25:02.769Z,2541.67
2023-01-10T13:30:02.485Z,3008.33
2023-01-10T13:35:03.206Z,3168.33
2023-01-10T13:40:03.062Z,2551.67
2023-01-10T13:45:02.797Z,2156.67
2023-01-10T13:50:02.988Z,2128.33
2023-01-10T13:55:03.250Z,2465
2023-01-10T14:00:03.273Z,2223.33
2023-01-10T14:05:02.903Z,1986.67
2023-01-10T14:10:05.202Z,1361.67
2023-01-10T14:15:03.381Z,1283.33
2023-01-10T14:20:03.136Z,1280
2023-01-10T14:25:02.787Z,1148.33
2023-01-10T14:30:02.481Z,921.67
2023-01-10T14:35:03.289Z,863.33
2023-01-10T14:40:03.100Z,645
2023-01-10T14:45:02.783Z,516.67
2023-01-10T14:50:02.673Z,501.67
2023-01-10T14:55:03.058Z,430
2023-01-10T15:00:03.614Z,328.33
2023-01-10T15:05:03.150Z,251.67
2023-01-10T15:10:03.469Z,205
2023-01-10T15:15:03.246Z,160
2023-01-10T15:20:02.826Z,108.33
2023-01-10T15:25:02.531Z,50
2023-01-10T15:30:03.075Z,31.67
2023-01-10T15:35:02.827Z,20
2023-01-10T15:40:02.571Z,10
2023-01-10T15:45:02.521Z,11.21
2023-01-10T15:50:02.377Z,4.75
2023-01-10T15:55:03.706Z,2.15
2023-01-10T16:00:03.225Z,0.91
2023-01-10T16:05:02.795Z,0.23
2023-01-10T16:10:02.628Z,0
2023-01-10T16:15:03.345Z,0
2023-01-10T16:20:03.213Z,0
2023-01-10T16:25:02.945Z,0
2023-01-10T16:30:02.891Z,0
2023-01-10T16:35:02.690Z,0
2023-01-10T16:40:02.628Z,0
2023-01-10T16:45:02.612Z,0
2023-01-10T16:50:03.264Z,0
2023-01-10T16:55:03.685Z,0
2023-01-10T17:00:02.376Z,0
2023-01-10T17:05:03.249Z,0
2023-01-10T17:10:02.940Z,0
2023-01-10T17:15:02.737Z,0
2023-01-10T17:20:02.468Z,0
2023-01-10T17:25:03.285Z,0
2023-01-10T17:30:03.276Z,0
2023-01-10T17:35:02.969Z,0
2023-01-10T17:40:02.744Z,0
2023-01-10T17:45:02.914Z,0
2023-01-10T17:50:02.452Z,0
2023-01-10T17:55:03.794Z,0
2023-01-10T18:00:03.070Z,0
2023-01-10T18:05:02.637Z,0
2023-01-10T18:10:02.390Z,0
2023-01-10T18:15:03.189Z,0
2023-01-10T18:20:02.816Z,0
2023-01-10T18:25:02.652Z,0
2023-01-10T18:30:03.365Z,0
2023-01-10T18:35:03.071Z,0
2023-01-10T18:40:03.210Z,0
2023-01-10T18:45:02.944Z,0
2023-01-10T18:50:02.652Z,0
2023-01-10T18:55:03.552Z,0
2023-01-10T19:00:03.280Z,0
2023-01-10T19:05:03.072Z,0
2023-01-10T19:10:02.864Z,0
2023-01-10T19:15:02.544Z,0
2023-01-10T19:20:02.511Z,0
2023-01-10T19:25:03.286Z,0
2023-01-10T19:30:03.077Z,0
2023-01-10T19:35:02.942Z,0
2023-01-10T19:40:02.958Z,0
2023-01-10T19:45:02.720Z,0
2023-01-10T19:50:02.501Z,0
2023-01-10T19:55:03.865Z,0
2023-01-10T20:00:03.096Z,0
2023-01-10T20:05:02.825Z,0
2023-01-10T20:10:02.518Z,0
2023-01-10T20:15:03.258Z,0
2023-01-10T20:20:03.196Z,0
2023-01-10T20:25:03.052Z,0
2023-01-10T20:30:03.242Z,0
2023-01-10T20:35:02.842Z,0
2023-01-10T20:40:02.552Z,0
2023-01-10T20:45:03.391Z,0
2023-01-10T20:50:03.441Z,0
2023-01-10T20:55:03.601Z,0
2023-01-10T21:00:02.572Z,0
2023-01-10T21:05:03.285Z,0
2023-01-10T21:10:03.054Z,0
2023-01-10T21:15:02.812Z,0
2023-01-10T21:20:02.561Z,0
2023-01-10T21:25:03.311Z,0
2023-01-10T21:30:03.115Z,0
2023-01-10T21:35:03.061Z,0
2023-01-10T21:40:02.993Z,0
2023-01-10T21:45:02.898Z,0
2023-01-10T21:50:02.476Z,0
2023-01-10T21:55:04.148Z,0
2023-01-10T22:00:03.207Z,0
2023-01-10T22:05:03.192Z,0
2023-01-10T22:10:02.864Z,0
2023-01-10T22:15:02.673Z,0
2023-01-10T22:20:02.620Z,0
2023-01-10T22:25:03.095Z,0
2023-01-10T22:30:02.939Z,0
2023-01-10T22:35:02.753Z,0
2023-01-10T22:40:02.462Z,0
2023-01-10T22:45:02.903Z,0
2023-01-10T22:50:02.756Z,0
2023-01-10T22:55:03.121Z,0
2023-01-10T23:00:03.264Z,0
2023-01-10T23:05:02.776Z,0
2023-01-10T23:10:02.528Z,0
2023-01-10T23:15:03.308Z,0
2023-01-10T23:20:03.064Z,0
2023-01-10T23:25:02.735Z,0
2023-01-10T23:30:02.801Z,0
2023-01-10T23:35:02.741Z,0
2023-01-10T23:40:02.413Z,0
2023-01-10T23:45:03.190Z,0
2023-01-10T23:50:02.867Z,0
2023-01-10T23:55:03.532Z,0
